createdAt,value
2022-12-20T00:01:56.395Z,9.22
2022-12-20T00:04:24.746Z,9.51
2022-12-20T00:06:53.176Z,8.62
2022-12-20T00:09:21.928Z,7.65
2022-12-20T00:11:50.222Z,6.91
2022-12-20T00:14:18.726Z,6.29
2022-12-20T00:16:47.176Z,6.05
2022-12-20T00:19:16.851Z,7.11
2022-12-20T00:21:45.416Z,8.24
2022-12-20T00:24:13.762Z,8.87
2022-12-20T00:26:42.290Z,8.26
2022-12-20T00:29:11.754Z,7.34
2022-12-20T00:31:40.132Z,6.62
2022-12-20T00:34:11.030Z,6.08
2022-12-20T00:36:40.779Z,6.53
2022-12-20T00:39:10.082Z,7.86
2022-12-20T00:41:38.444Z,8.77
2022-12-20T00:44:06.944Z,9.17
2022-12-20T00:46:35.789Z,8.44
2022-12-20T00:49:04.107Z,7.55
2022-12-20T00:51:32.936Z,6.84
2022-12-20T00:54:01.389Z,6.27
2022-12-20T00:56:29.855Z,6.12
2022-12-20T00:59:00.087Z,7.26
2022-12-20T01:01:32.126Z,8.53
2022-12-20T01:04:01.235Z,9.47
2022-12-20T01:06:30.606Z,10.08
2022-12-20T01:08:59.334Z,10.26
2022-12-20T01:11:31.558Z,9.37
2022-12-20T01:14:02.961Z,8.33
2022-12-20T01:16:35.698Z,7.50
2022-12-20T01:19:05.458Z,6.87
2022-12-20T01:21:34.601Z,6.58
2022-12-20T01:24:03.004Z,7.66
2022-12-20T01:26:31.338Z,8.90
2022-12-20T01:29:00.854Z,9.43
2022-12-20T01:31:30.560Z,8.72
2022-12-20T01:33:59.924Z,7.82
2022-12-20T01:36:34.109Z,7.11
2022-12-20T01:39:06.437Z,6.88
2022-12-20T01:41:35.585Z,8.04
2022-12-20T01:44:17.105Z,9.16
2022-12-20T01:46:48.730Z,10.12
2022-12-20T01:49:30.017Z,10.52
2022-12-20T01:52:06.266Z,9.61
2022-12-20T01:54:39.669Z,8.50
2022-12-20T01:57:21.384Z,7.68
2022-12-20T01:59:52.548Z,7.35
2022-12-20T02:02:23.117Z,8.45
2022-12-20T02:04:51.571Z,9.45
2022-12-20T02:07:24.780Z,9.68
2022-12-20T02:09:55.370Z,8.83
2022-12-20T02:12:34.143Z,7.90
2022-12-20T02:15:23.850Z,7.18
2022-12-20T02:18:10.734Z,6.99
2022-12-20T02:21:07.276Z,8.25
2022-12-20T02:23:43.331Z,9.40
2022-12-20T02:26:38.171Z,10.07
2022-12-20T02:29:18.897Z,10.22
2022-12-20T02:31:54.035Z,9.12
2022-12-20T02:34:27.940Z,8.11
2022-12-20T02:36:56.887Z,7.34
2022-12-20T02:39:29.197Z,7.10
2022-12-20T02:41:59.341Z,8.19
2022-12-20T02:44:49.799Z,9.22
2022-12-20T02:47:25.193Z,10.07
2022-12-20T02:49:56.057Z,10.25
2022-12-20T02:52:31.192Z,9.39
2022-12-20T02:55:01.177Z,8.33
2022-12-20T02:57:57.896Z,7.50
2022-12-20T03:00:33.817Z,7.36
2022-12-20T03:03:21.635Z,8.58
2022-12-20T03:05:55.999Z,9.65
2022-12-20T03:08:25.112Z,10.34
2022-12-20T03:10:55.304Z,10.62
2022-12-20T03:13:25.355Z,9.79
2022-12-20T03:16:00.707Z,8.78
2022-12-20T03:18:29.576Z,7.99
2022-12-20T03:20:58.211Z,7.67
2022-12-20T03:23:27.071Z,8.73
2022-12-20T03:25:55.578Z,9.85
2022-12-20T03:28:34.797Z,10.56
2022-12-20T03:31:04.233Z,10.75
2022-12-20T03:33:34.663Z,9.95
2022-12-20T03:36:07.824Z,8.95
2022-12-20T03:38:36.425Z,8.16
2022-12-20T03:41:06.703Z,7.87
2022-12-20T03:43:35.265Z,8.92
2022-12-20T03:46:04.050Z,9.90
2022-12-20T03:48:36.925Z,10.55
2022-12-20T03:51:05.723Z,10.96
2022-12-20T03:53:34.904Z,10.97
2022-12-20T03:56:03.940Z,9.97
2022-12-20T03:58:32.369Z,8.95
2022-12-20T04:01:01.457Z,8.17
2022-12-20T04:03:43.290Z,7.87
2022-12-20T04:06:12.063Z,8.92
2022-12-20T04:08:40.567Z,9.93
2022-12-20T04:11:16.441Z,10.57
2022-12-20T04:14:08.867Z,10.61
2022-12-20T04:16:37.814Z,9.62
2022-12-20T04:19:07.351Z,8.63
2022-12-20T04:21:40.483Z,8.22
2022-12-20T04:24:10.568Z,9.26
2022-12-20T04:27:02.476Z,10.42
2022-12-20T04:29:31.285Z,10.94
2022-12-20T04:32:00.391Z,10.18
2022-12-20T04:34:29.859Z,9.15
2022-12-20T04:36:59.306Z,8.30
2022-12-20T04:39:38.503Z,8.03
2022-12-20T04:42:28.216Z,9.38
2022-12-20T04:44:57.271Z,10.37
2022-12-20T04:47:27.991Z,11.05
2022-12-20T04:49:56.850Z,11.22
2022-12-20T04:52:48.015Z,10.35
2022-12-20T04:55:16.907Z,9.21
2022-12-20T04:57:46.169Z,8.44
2022-12-20T05:00:15.628Z,8.15
2022-12-20T05:02:45.636Z,9.22
2022-12-20T05:05:17.180Z,10.29
2022-12-20T05:07:50.357Z,10.91
2022-12-20T05:10:19.674Z,11.12
2022-12-20T05:12:50.063Z,10.25
2022-12-20T05:15:26.120Z,9.13
2022-12-20T05:17:59.603Z,8.57
2022-12-20T05:20:31.471Z,9.59
2022-12-20T05:23:19.951Z,10.64
2022-12-20T05:26:09.487Z,11.44
2022-12-20T05:28:38.049Z,11.35
2022-12-20T05:31:06.750Z,10.27
2022-12-20T05:33:37.082Z,9.24
2022-12-20T05:36:06.132Z,8.44
2022-12-20T05:38:34.878Z,8.13
2022-12-20T05:41:06.163Z,9.16
2022-12-20T05:43:34.841Z,10.40
2022-12-20T05:46:05.944Z,11.18
2022-12-20T05:48:42.428Z,11.39
2022-12-20T05:51:12.175Z,10.51
2022-12-20T05:53:53.530Z,9.45
2022-12-20T05:56:25.347Z,8.66
2022-12-20T05:58:53.706Z,8.34
2022-12-20T06:01:22.185Z,9.39
2022-12-20T06:03:51.692Z,10.51
2022-12-20T06:06:20.178Z,11.25
2022-12-20T06:08:49.358Z,11.34
2022-12-20T06:11:40.273Z,10.28
2022-12-20T06:14:11.580Z,9.28
2022-12-20T06:16:45.603Z,8.44
2022-12-20T06:19:21.206Z,8.18
2022-12-20T06:21:50.628Z,9.26
2022-12-20T06:24:25.451Z,10.24
2022-12-20T06:26:54.759Z,10.87
2022-12-20T06:29:24.872Z,11.09
2022-12-20T06:32:00.298Z,10.21
2022-12-20T06:34:29.050Z,9.13
2022-12-20T06:36:57.531Z,8.62
2022-12-20T06:39:29.551Z,9.46
2022-12-20T06:42:05.598Z,10.45
2022-12-20T06:44:35.405Z,11.13
2022-12-20T06:47:03.915Z,11.29
2022-12-20T06:49:32.272Z,10.34
2022-12-20T06:52:00.968Z,9.33
2022-12-20T06:54:45.374Z,8.45
2022-12-20T06:57:15.062Z,8.17
2022-12-20T06:59:45.471Z,9.25
2022-12-20T07:02:14.250Z,10.35
2022-12-20T07:04:42.919Z,11.05
2022-12-20T07:07:13.344Z,11.32
2022-12-20T07:09:42.852Z,10.45
2022-12-20T07:12:12.176Z,9.45
2022-12-20T07:14:40.511Z,8.64
2022-12-20T07:17:09.269Z,8.30
2022-12-20T07:19:38.134Z,9.26
2022-12-20T07:22:06.862Z,10.48
2022-12-20T07:24:35.222Z,11.36
2022-12-20T07:27:03.867Z,11.74
2022-12-20T07:29:32.297Z,10.91
2022-12-20T07:32:00.791Z,9.87
2022-12-20T07:34:29.423Z,8.99
2022-12-20T07:36:57.822Z,8.53
2022-12-20T07:39:26.372Z,9.43
2022-12-20T07:41:55.688Z,10.54
2022-12-20T07:44:24.475Z,11.21
2022-12-20T07:46:53.469Z,11.01
2022-12-20T07:49:22.353Z,9.99
2022-12-20T07:51:55.615Z,9.05
2022-12-20T07:54:38.465Z,8.59
2022-12-20T07:57:12.719Z,9.64
2022-12-20T07:59:47.505Z,10.71
2022-12-20T08:02:22.481Z,11.39
2022-12-20T08:04:51.127Z,11.52
2022-12-20T08:07:19.691Z,10.61
2022-12-20T08:09:48.604Z,9.63
2022-12-20T08:12:19.320Z,8.79
2022-12-20T08:14:47.868Z,8.49
2022-12-20T08:17:16.490Z,9.53
2022-12-20T08:19:44.946Z,10.50
2022-12-20T08:22:13.275Z,11.12
2022-12-20T08:24:41.553Z,11.28
2022-12-20T08:27:09.925Z,10.46
2022-12-20T08:29:38.364Z,9.46
2022-12-20T08:32:06.756Z,8.65
2022-12-20T08:34:35.456Z,8.34
2022-12-20T08:37:09.045Z,9.40
2022-12-20T08:39:40.940Z,10.56
2022-12-20T08:42:12.743Z,11.26
2022-12-20T08:44:41.137Z,11.47
2022-12-20T08:47:10.541Z,10.60
2022-12-20T08:49:44.018Z,9.67
2022-12-20T08:52:16.002Z,8.87
2022-12-20T08:54:44.358Z,8.56
2022-12-20T08:57:13.157Z,9.55
2022-12-20T08:59:43.892Z,10.57
2022-12-20T09:02:12.525Z,11.27
2022-12-20T09:04:41.290Z,11.55
2022-12-20T09:07:09.980Z,10.79
2022-12-20T09:09:38.428Z,9.91
2022-12-20T09:12:07.929Z,9.23
2022-12-20T09:14:36.341Z,8.67
2022-12-20T09:17:04.883Z,8.51
2022-12-20T09:19:33.528Z,9.63
2022-12-20T09:22:02.015Z,10.76
2022-12-20T09:24:30.689Z,11.22
2022-12-20T09:27:00.118Z,10.54
2022-12-20T09:29:35.248Z,9.63
2022-12-20T09:32:04.607Z,8.87
2022-12-20T09:34:33.176Z,8.64
2022-12-20T09:37:01.722Z,9.80
2022-12-20T09:39:30.384Z,10.96
2022-12-20T09:41:59.335Z,11.49
2022-12-20T09:44:32.450Z,10.74
2022-12-20T11:13:22.792Z,9.68
2022-12-20T11:15:54.082Z,9.32
2022-12-20T11:18:48.481Z,10.48
2022-12-20T11:21:45.274Z,11.58
2022-12-20T11:24:23.312Z,11.89
2022-12-20T11:27:09.309Z,10.99
2022-12-20T11:29:46.900Z,9.97
2022-12-20T11:32:48.815Z,9.27
2022-12-20T11:35:16.639Z,9.23
2022-12-20T11:38:07.203Z,10.44
2022-12-20T11:40:43.639Z,11.54
2022-12-20T11:44:23.350Z,12.03
2022-12-20T11:47:20.901Z,11.29
2022-12-20T11:50:02.680Z,10.18
2022-12-20T11:52:35.593Z,9.48
2022-12-20T11:55:06.140Z,9.31
2022-12-20T11:58:16.485Z,10.41
2022-12-20T12:00:34.721Z,11.55
2022-12-20T12:03:12.297Z,12.05
2022-12-20T12:05:58.824Z,11.31
2022-12-20T12:09:06.063Z,10.26
2022-12-20T12:12:06.039Z,9.37
2022-12-20T12:14:34.859Z,9.27
2022-12-20T12:17:11.484Z,10.61
2022-12-20T12:19:42.929Z,11.70
2022-12-20T12:22:22.256Z,12.08
2022-12-20T12:24:56.633Z,11.22
2022-12-20T12:27:26.103Z,10.23
2022-12-20T12:29:58.492Z,9.49
2022-12-20T12:32:30.689Z,9.26
2022-12-20T12:35:38.996Z,10.38
2022-12-20T12:38:33.866Z,11.94
2022-12-20T12:41:09.659Z,12.36
2022-12-20T12:43:45.090Z,11.41
2022-12-20T12:46:21.617Z,10.51
2022-12-20T12:48:56.035Z,9.78
2022-12-20T12:51:34.725Z,9.22
2022-12-20T12:54:16.391Z,9.28
2022-12-20T12:56:49.042Z,10.92
2022-12-20T12:59:40.374Z,12.10
2022-12-20T13:02:14.137Z,12.38
2022-12-20T13:05:04.239Z,11.44
2022-12-20T13:07:31.901Z,10.42
2022-12-20T13:10:24.371Z,9.78
2022-12-20T13:12:51.597Z,9.20
2022-12-20T13:15:18.703Z,9.16
2022-12-20T13:17:59.124Z,10.38
2022-12-20T13:20:29.673Z,11.50
2022-12-20T13:23:12.228Z,12.15
2022-12-20T13:25:57.750Z,11.79
2022-12-20T13:28:25.190Z,10.78
2022-12-20T13:31:01.754Z,10.06
2022-12-20T13:33:44.590Z,9.47
2022-12-20T13:36:11.772Z,8.95
2022-12-20T13:38:45.004Z,8.93
2022-12-20T13:41:36.094Z,10.28
2022-12-20T13:44:15.752Z,11.61
2022-12-20T13:47:10.963Z,12.10
2022-12-20T13:49:40.425Z,11.12
2022-12-20T13:52:20.491Z,10.24
2022-12-20T13:54:51.880Z,9.54
2022-12-20T13:57:26.847Z,9.02
2022-12-20T14:00:03.515Z,8.98
2022-12-20T14:02:40.467Z,10.39
2022-12-20T14:05:25.955Z,11.53
2022-12-20T14:08:14.566Z,11.77
2022-12-20T14:10:41.740Z,10.80
2022-12-20T14:13:38.457Z,9.95
2022-12-20T14:16:18.082Z,9.13
2022-12-20T14:18:57.714Z,9.02
2022-12-20T14:21:26.074Z,10.46
2022-12-20T14:23:56.482Z,11.65
2022-12-20T14:26:29.396Z,12.16
2022-12-20T14:28:58.375Z,11.38
2022-12-20T14:31:30.243Z,10.44
2022-12-20T14:34:16.680Z,9.70
2022-12-20T14:36:46.836Z,9.09
2022-12-20T14:39:31.567Z,9.27
2022-12-20T14:42:12.774Z,10.65
2022-12-20T14:44:40.737Z,11.66
2022-12-20T14:47:25.464Z,12.00
2022-12-20T14:50:01.999Z,11.19
2022-12-20T14:52:37.626Z,10.26
2022-12-20T14:55:29.516Z,9.54
2022-12-20T14:57:57.615Z,9.38
2022-12-20T15:00:31.373Z,10.55
2022-12-20T15:03:01.607Z,11.62
2022-12-20T15:05:44.912Z,12.01
2022-12-20T15:08:18.967Z,11.26
2022-12-20T15:10:54.265Z,10.33
2022-12-20T15:13:39.665Z,9.63
2022-12-20T15:16:28.703Z,9.48
2022-12-20T15:19:01.479Z,10.73
2022-12-20T15:21:32.150Z,11.68
2022-12-20T15:24:01.993Z,12.03
2022-12-20T15:26:30.481Z,11.29
2022-12-20T15:28:57.799Z,10.40
2022-12-20T15:31:32.825Z,9.71
2022-12-20T15:34:03.954Z,9.17
2022-12-20T15:36:33.011Z,9.11
2022-12-20T15:39:15.815Z,10.35
2022-12-20T15:41:46.508Z,11.53
2022-12-20T15:44:23.119Z,12.28
2022-12-20T15:46:50.502Z,12.51
2022-12-20T15:49:20.836Z,11.68
2022-12-20T15:51:49.556Z,10.74
2022-12-20T15:54:29.260Z,9.96
2022-12-20T15:57:06.780Z,9.29
2022-12-20T15:59:59.684Z,9.21
2022-12-20T16:02:27.449Z,10.63
2022-12-20T16:04:55.837Z,11.77
2022-12-20T16:07:23.475Z,12.45
2022-12-20T16:09:51.097Z,12.65
2022-12-20T16:12:26.558Z,11.75
2022-12-20T16:14:54.572Z,10.66
2022-12-20T16:17:21.855Z,9.90
2022-12-20T16:19:50.116Z,9.32
2022-12-20T16:22:21.566Z,9.36
2022-12-20T16:24:49.374Z,10.65
2022-12-20T16:27:17.205Z,11.71
2022-12-20T16:29:44.754Z,12.19
2022-12-20T16:32:18.326Z,11.46
2022-12-20T16:34:46.028Z,10.46
2022-12-20T16:37:13.436Z,9.70
2022-12-20T16:39:44.202Z,9.49
2022-12-20T16:42:15.267Z,10.70
2022-12-20T16:44:44.196Z,11.86
2022-12-20T16:47:11.724Z,12.61
2022-12-20T16:49:38.998Z,12.79
2022-12-20T16:52:16.194Z,11.94
2022-12-20T16:54:43.368Z,10.95
2022-12-20T16:57:10.520Z,10.18
2022-12-20T16:59:37.871Z,9.60
2022-12-20T17:02:21.175Z,9.48
2022-12-20T17:04:48.834Z,10.99
2022-12-20T17:07:15.998Z,12.14
2022-12-20T17:12:28.352Z,11.67
2022-12-20T17:14:55.971Z,10.68
2022-12-20T17:17:23.044Z,9.88
2022-12-20T17:19:50.400Z,9.70
2022-12-20T17:22:24.146Z,10.99
2022-12-20T17:24:52.041Z,12.19
2022-12-20T17:27:19.324Z,12.49
2022-12-20T17:29:46.461Z,11.68
2022-12-20T17:32:22.548Z,10.69
2022-12-20T17:34:50.663Z,9.84
2022-12-20T17:37:18.359Z,9.61
2022-12-20T17:39:45.706Z,10.85
2022-12-20T17:42:13.369Z,11.91
2022-12-20T17:44:40.604Z,12.31
2022-12-20T17:47:07.789Z,11.51
2022-12-20T17:49:34.887Z,10.55
2022-12-20T17:52:02.063Z,9.83
2022-12-20T17:54:35.149Z,9.57
2022-12-20T17:57:11.371Z,10.83
2022-12-20T17:59:38.948Z,11.88
2022-12-20T18:02:21.325Z,12.02
2022-12-20T18:04:49.337Z,11.13
2022-12-20T18:07:16.880Z,10.31
2022-12-20T18:09:46.953Z,9.69
2022-12-20T18:12:14.240Z,9.22
2022-12-20T18:14:41.563Z,9.21
2022-12-20T18:17:08.772Z,10.42
2022-12-20T18:19:36.083Z,11.55
2022-12-20T18:22:04.207Z,12.34
2022-12-20T18:24:31.635Z,12.62
2022-12-20T18:26:58.882Z,11.87
2022-12-20T18:29:26.198Z,10.99
2022-12-20T18:31:53.490Z,10.20
2022-12-20T18:34:20.733Z,9.57
2022-12-20T18:36:48.077Z,9.41
2022-12-20T18:39:15.324Z,10.58
2022-12-20T18:41:43.719Z,11.69
2022-12-20T18:44:11.410Z,12.29
2022-12-20T18:46:40.217Z,11.66
2022-12-20T18:49:08.809Z,10.73
2022-12-20T18:51:36.654Z,9.98
2022-12-20T18:54:06.235Z,9.40
2022-12-20T18:56:36.775Z,9.26
2022-12-20T18:59:10.756Z,10.37
2022-12-20T19:01:40.888Z,11.45
2022-12-20T19:04:08.581Z,11.94
2022-12-20T19:06:37.343Z,11.25
2022-12-20T19:09:08.301Z,10.36
2022-12-20T19:11:35.987Z,9.65
2022-12-20T19:14:03.151Z,9.42
2022-12-20T19:16:32.041Z,10.54
2022-12-20T19:19:01.109Z,11.68
2022-12-20T19:21:34.410Z,12.25
2022-12-20T19:24:06.109Z,11.55
2022-12-20T19:26:35.789Z,10.61
2022-12-20T19:29:03.821Z,9.88
2022-12-20T19:31:32.901Z,9.34
2022-12-20T19:34:03.541Z,9.27
2022-12-20T19:36:35.561Z,10.56
2022-12-20T19:39:04.387Z,11.71
2022-12-20T19:41:33.779Z,11.95
2022-12-20T19:44:01.861Z,11.16
2022-12-20T19:46:30.123Z,10.32
2022-12-20T19:48:59.282Z,9.67
2022-12-20T19:51:27.722Z,9.18
2022-12-20T19:53:56.876Z,9.58
2022-12-20T19:56:28.748Z,10.85
2022-12-20T19:58:56.424Z,11.86
2022-12-20T20:01:26.811Z,12.32
2022-12-20T20:03:56.625Z,11.62
2022-12-20T20:06:24.353Z,10.67
2022-12-20T20:08:51.993Z,9.92
2022-12-20T20:11:20.452Z,9.39
2022-12-20T20:13:47.701Z,9.29
2022-12-20T20:16:21.553Z,10.47
2022-12-20T20:18:49.958Z,11.62
2022-12-20T20:21:21.373Z,12.09
2022-12-20T20:23:51.090Z,11.34
2022-12-20T20:26:23.978Z,10.46
2022-12-20T20:28:52.072Z,9.74
2022-12-20T20:31:20.459Z,9.21
2022-12-20T20:33:48.696Z,9.85
2022-12-20T20:36:21.500Z,11.14
2022-12-20T20:38:51.106Z,11.80
2022-12-20T20:41:18.997Z,11.16
2022-12-20T20:43:46.231Z,10.28
2022-12-20T20:46:15.342Z,9.58
2022-12-20T20:48:43.287Z,9.02
2022-12-20T20:51:11.240Z,8.94
2022-12-20T20:53:38.908Z,10.14
2022-12-20T20:56:07.844Z,11.28
2022-12-20T20:58:35.434Z,11.87
2022-12-20T21:01:04.834Z,11.23
2022-12-20T21:03:32.092Z,10.32
2022-12-20T21:08:47.197Z,9.01
2022-12-20T21:11:14.928Z,8.93
2022-12-20T21:13:42.324Z,10.11
2022-12-20T21:16:19.504Z,11.15
2022-12-20T21:18:51.572Z,11.60
2022-12-20T21:21:19.926Z,10.84
2022-12-20T21:23:47.882Z,9.97
2022-12-20T21:26:16.584Z,9.29
2022-12-20T21:28:43.818Z,8.72
2022-12-20T21:31:17.668Z,8.63
2022-12-20T21:33:45.687Z,9.91
2022-12-20T21:36:15.584Z,11.07
2022-12-20T21:38:47.577Z,11.59
2022-12-20T21:41:14.750Z,10.92
2022-12-20T21:43:42.114Z,10.10
2022-12-20T21:46:10.677Z,9.46
2022-12-20T21:48:42.944Z,8.90
2022-12-20T21:51:21.663Z,8.62
2022-12-20T21:53:51.676Z,9.71
2022-12-20T21:56:20.193Z,10.88
2022-12-20T21:58:48.238Z,11.36
2022-12-20T22:01:18.612Z,10.64
2022-12-20T22:03:50.093Z,9.78
2022-12-20T22:06:18.023Z,9.09
2022-12-20T22:08:45.346Z,8.59
2022-12-20T22:11:17.731Z,8.51
2022-12-20T22:13:45.966Z,9.76
2022-12-20T22:16:16.214Z,10.88
2022-12-20T22:18:47.371Z,11.42
2022-12-20T22:21:16.319Z,10.69
2022-12-20T22:23:43.532Z,9.85
2022-12-20T22:26:16.210Z,9.17
2022-12-20T22:28:46.372Z,8.60
2022-12-20T22:31:13.831Z,8.49
2022-12-20T22:33:41.573Z,9.76
2022-12-20T22:36:10.586Z,10.97
2022-12-20T22:38:38.075Z,11.51
2022-12-20T22:41:29.337Z,10.76
2022-12-20T22:44:00.318Z,9.75
2022-12-20T22:46:31.130Z,9.05
2022-12-20T22:48:59.372Z,8.49
2022-12-20T22:51:30.111Z,8.41
2022-12-20T22:53:58.501Z,9.70
2022-12-20T22:56:26.145Z,10.93
2022-12-20T22:58:53.355Z,11.45
2022-12-20T23:01:20.935Z,10.79
2022-12-20T23:03:48.713Z,10.02
2022-12-20T23:06:19.493Z,9.36
2022-12-20T23:08:47.567Z,8.81
2022-12-20T23:11:42.552Z,8.33
2022-12-20T23:15:03.788Z,8.49
2022-12-20T23:17:32.604Z,10.27
2022-12-20T23:20:18.807Z,11.26
2022-12-20T23:22:46.418Z,11.64
2022-12-20T23:25:16.638Z,10.88
2022-12-20T23:27:46.920Z,10.02
2022-12-20T23:30:17.451Z,9.32
2022-12-20T23:32:45.528Z,8.79
2022-12-20T23:35:15.641Z,8.33
2022-12-20T23:37:44.885Z,8.07
2022-12-20T23:40:13.627Z,9.04
2022-12-20T23:42:41.074Z,10.40
2022-12-20T23:45:10.033Z,11.01
2022-12-20T23:47:37.355Z,10.42
2022-12-20T23:50:05.453Z,9.62
2022-12-20T23:52:32.969Z,8.98
2022-12-20T23:55:00.334Z,8.48
2022-12-20T23:57:31.042Z,8.08
2022-12-20T23:59:58.864Z,8.08
